createdAt,value
2019-01-06T00:02:40.454Z,4.96
2019-01-06T00:05:27.941Z,4.88
2019-01-06T00:08:15.428Z,4.86
2019-01-06T00:11:02.903Z,4.90
2019-01-06T00:16:29.348Z,4.83
2019-01-06T00:19:16.826Z,4.89
2019-01-06T00:22:04.308Z,4.86
2019-01-06T00:24:51.809Z,4.86
2019-01-06T00:27:39.276Z,4.80
2019-01-06T00:30:41.536Z,4.81
2019-01-06T00:33:29.023Z,4.77
2019-01-06T00:36:16.500Z,4.82
2019-01-06T00:39:03.997Z,4.91
2019-01-06T00:41:51.483Z,4.85
2019-01-06T00:44:38.976Z,4.71
2019-01-06T00:47:26.452Z,4.69
2019-01-06T00:50:13.944Z,4.64
2019-01-06T00:53:01.427Z,4.69
2019-01-06T00:55:48.908Z,4.70
2019-01-06T00:58:36.393Z,4.72
2019-01-06T01:01:23.886Z,4.68
2019-01-06T01:04:11.371Z,4.66
2019-01-06T01:06:58.877Z,4.71
2019-01-06T01:10:05.731Z,4.71
2019-01-06T01:18:21.113Z,4.48
2019-01-06T01:21:08.620Z,4.36
2019-01-06T01:23:56.133Z,4.31
2019-01-06T01:26:48.215Z,4.28
2019-01-06T01:29:32.863Z,4.36
2019-01-06T01:35:16.798Z,4.15
2019-01-06T01:38:04.288Z,4.07
2019-01-06T01:43:40.719Z,3.85
2019-01-06T01:46:28.227Z,3.89
2019-01-06T01:49:15.715Z,3.91
2019-01-06T01:52:03.207Z,3.97
2019-01-06T01:57:39.658Z,4.04
2019-01-06T02:00:48.049Z,4.00
2019-01-06T02:03:35.555Z,3.99
2019-01-06T02:09:02.011Z,4.02
2019-01-06T02:11:49.503Z,4.04
2019-01-06T02:14:36.990Z,4.07
2019-01-06T02:17:24.487Z,4.13
2019-01-06T02:20:11.975Z,4.15
2019-01-06T02:22:59.466Z,4.03
2019-01-06T02:33:54.856Z,3.74
2019-01-06T02:36:42.335Z,3.65
2019-01-06T02:39:29.827Z,3.59
2019-01-06T02:42:17.328Z,3.55
2019-01-06T02:45:04.903Z,3.47
2019-01-06T02:47:52.390Z,3.51
2019-01-06T02:50:39.926Z,3.42
2019-01-06T02:53:27.412Z,3.43
2019-01-06T02:56:14.895Z,3.48
2019-01-06T02:59:02.385Z,3.46
2019-01-06T03:04:38.812Z,3.56
2019-01-06T03:07:26.308Z,3.57
2019-01-06T03:10:13.858Z,3.62
2019-01-06T03:13:01.344Z,3.66
2019-01-06T03:18:27.780Z,3.72
2019-01-06T03:23:54.238Z,3.72
2019-01-06T03:32:09.640Z,3.74
2019-01-06T03:34:57.126Z,3.68
2019-01-06T03:37:44.594Z,3.72
2019-01-06T03:40:32.109Z,3.77
2019-01-06T03:43:19.565Z,3.79
2019-01-06T03:46:07.046Z,3.77
2019-01-06T03:48:54.540Z,3.67
2019-01-06T03:51:42.027Z,3.76
2019-01-06T03:54:29.504Z,3.86
2019-01-06T03:57:16.997Z,3.92
2019-01-06T04:00:04.485Z,3.85
2019-01-06T04:02:51.973Z,3.81
2019-01-06T04:05:39.476Z,3.75
2019-01-06T04:08:26.957Z,3.74
2019-01-06T04:11:15.211Z,3.73
2019-01-06T04:14:03.646Z,3.73
2019-01-06T04:16:51.200Z,3.77
2019-01-06T04:19:38.695Z,3.92
2019-01-06T04:27:54.102Z,3.84
2019-01-06T04:30:41.575Z,3.91
2019-01-06T04:33:29.076Z,3.95
2019-01-06T04:36:16.581Z,3.92
2019-01-06T04:39:04.051Z,3.96
2019-01-06T04:41:51.558Z,3.97
2019-01-06T04:47:28.019Z,3.96
2019-01-06T04:50:15.509Z,3.78
2019-01-06T04:55:41.952Z,3.85
2019-01-06T04:58:29.447Z,3.88
2019-01-06T05:01:16.921Z,3.89
2019-01-06T05:06:46.880Z,3.90
2019-01-06T05:09:34.382Z,3.76
2019-01-06T05:12:21.860Z,3.92
2019-01-06T05:15:09.367Z,3.85
2019-01-06T05:17:56.842Z,3.88
2019-01-06T05:20:44.335Z,3.86
2019-01-06T05:23:31.818Z,3.96
2019-01-06T05:26:19.331Z,3.95
2019-01-06T05:29:06.801Z,4.06
2019-01-06T05:31:54.303Z,3.97
2019-01-06T05:37:20.772Z,3.97
2019-01-06T05:42:58.070Z,3.87
2019-01-06T05:48:34.512Z,3.86
2019-01-06T05:54:10.977Z,3.75
2019-01-06T05:56:58.444Z,3.85
2019-01-06T05:59:45.938Z,3.79
2019-01-06T06:02:33.426Z,3.84
2019-01-06T06:05:20.922Z,3.85
2019-01-06T06:08:08.403Z,3.92
2019-01-06T06:10:55.895Z,3.94
2019-01-06T06:16:32.343Z,4.08
2019-01-06T06:19:19.809Z,4.13
2019-01-06T06:22:07.301Z,4.15
2019-01-06T06:24:54.773Z,4.17
2019-01-06T06:30:21.224Z,4.21
2019-01-06T06:33:08.697Z,4.27
2019-01-06T06:35:56.190Z,4.28
2019-01-06T06:38:43.670Z,4.20
2019-01-06T06:41:31.146Z,4.27
2019-01-06T06:49:36.547Z,4.30
2019-01-06T06:52:24.033Z,4.30
2019-01-06T06:55:11.518Z,4.34
2019-01-06T07:01:33.782Z,4.38
2019-01-06T07:04:21.458Z,4.40
2019-01-06T07:07:08.955Z,4.43
2019-01-06T07:12:45.421Z,4.48
2019-01-06T07:15:32.913Z,4.40
2019-01-06T07:18:20.405Z,4.36
2019-01-06T07:23:56.963Z,4.39
2019-01-06T07:26:44.460Z,4.35
2019-01-06T07:29:31.984Z,4.35
2019-01-06T07:37:47.382Z,4.14
2019-01-06T07:40:34.876Z,4.21
2019-01-06T07:43:22.343Z,4.19
2019-01-06T07:46:09.832Z,4.09
2019-01-06T07:48:57.308Z,4.05
2019-01-06T07:51:45.056Z,3.95
2019-01-06T07:54:32.608Z,4.06
2019-01-06T07:57:20.090Z,4.10
2019-01-06T08:00:14.963Z,4.12
2019-01-06T08:02:56.849Z,4.09
2019-01-06T08:05:44.336Z,4.13
2019-01-06T08:08:31.818Z,4.12
2019-01-06T08:11:19.314Z,4.16
2019-01-06T08:14:06.823Z,4.04
2019-01-06T08:16:54.314Z,4.10
2019-01-06T08:19:41.810Z,4.23
2019-01-06T08:25:18.257Z,4.28
2019-01-06T08:28:05.732Z,4.28
2019-01-06T08:33:32.198Z,4.20
2019-01-06T08:36:19.695Z,4.23
2019-01-06T08:39:07.174Z,4.23
2019-01-06T08:41:54.657Z,4.25
2019-01-06T08:44:42.220Z,4.20
2019-01-06T08:47:29.704Z,4.22
2019-01-06T08:50:17.213Z,4.21
2019-01-06T08:55:43.654Z,4.21
2019-01-06T08:58:31.149Z,4.29
2019-01-06T09:03:58.596Z,4.31
2019-01-06T09:06:46.082Z,4.36
2019-01-06T09:09:33.562Z,4.31
2019-01-06T09:17:48.939Z,4.38
2019-01-06T09:20:36.411Z,4.28
2019-01-06T09:26:02.883Z,4.38
2019-01-06T09:28:50.397Z,4.38
2019-01-06T09:31:37.899Z,4.27
2019-01-06T09:39:53.320Z,4.36
2019-01-06T09:42:40.814Z,4.27
2019-01-06T09:50:46.207Z,4.00
2019-01-06T09:53:33.741Z,4.05
2019-01-06T09:56:21.193Z,4.27
2019-01-06T09:59:08.683Z,4.30
2019-01-06T10:01:56.158Z,4.28
2019-01-06T10:04:43.645Z,4.30
2019-01-06T10:07:31.136Z,4.44
2019-01-06T10:10:18.626Z,4.42
2019-01-06T10:13:06.111Z,4.50
2019-01-06T10:15:53.823Z,4.54
2019-01-06T10:18:41.299Z,4.66
2019-01-06T10:21:28.802Z,4.60
2019-01-06T10:26:55.248Z,4.67
2019-01-06T10:32:21.703Z,4.51
2019-01-06T10:35:09.203Z,4.52
2019-01-06T10:37:56.685Z,4.57
2019-01-06T10:43:23.122Z,4.63
2019-01-06T10:48:49.583Z,4.89
2019-01-06T10:51:37.072Z,4.88
2019-01-06T10:57:13.511Z,4.44
2019-01-06T11:00:01.004Z,4.64
2019-01-06T11:02:48.491Z,4.80
2019-01-06T11:05:35.976Z,4.86
2019-01-06T11:08:23.462Z,4.86
2019-01-06T11:11:10.949Z,4.95
2019-01-06T11:16:40.901Z,4.88
2019-01-06T11:19:28.383Z,4.80
2019-01-06T11:25:04.814Z,4.90
2019-01-06T11:27:52.303Z,4.90
2019-01-06T11:30:39.844Z,4.81
2019-01-06T11:33:27.332Z,4.95
2019-01-06T11:36:14.816Z,4.91
2019-01-06T11:39:02.313Z,4.93
2019-01-06T11:44:28.777Z,4.80
2019-01-06T11:47:16.277Z,4.86
2019-01-06T11:50:03.788Z,4.91
2019-01-06T11:52:51.265Z,4.73
2019-01-06T11:58:17.716Z,4.85
2019-01-06T12:01:05.206Z,4.86
2019-01-06T12:03:52.691Z,4.83
2019-01-06T12:06:40.175Z,4.88
2019-01-06T12:09:27.673Z,5.00
2019-01-06T12:12:15.154Z,4.86
2019-01-06T12:15:02.655Z,4.78
2019-01-06T12:17:50.130Z,4.84
2019-01-06T12:20:37.630Z,5.02
2019-01-06T12:26:14.066Z,5.02
2019-01-06T12:29:01.555Z,4.97
2019-01-06T12:31:49.040Z,5.09
2019-01-06T12:34:36.546Z,5.18
2019-01-06T12:37:24.016Z,5.19
2019-01-06T12:40:11.489Z,5.26
2019-01-06T12:42:58.967Z,5.22
2019-01-06T12:48:25.424Z,5.23
2019-01-06T12:51:12.893Z,5.18
2019-01-06T12:54:01.176Z,5.10
2019-01-06T12:56:48.663Z,5.18
2019-01-06T12:59:36.131Z,5.13
2019-01-06T13:02:23.625Z,5.28
2019-01-06T13:05:11.102Z,5.39
2019-01-06T13:07:58.590Z,5.48
2019-01-06T13:13:25.020Z,5.30
2019-01-06T13:16:12.521Z,5.34
2019-01-06T13:21:49.021Z,5.39
2019-01-06T13:27:25.543Z,5.23
2019-01-06T13:33:01.971Z,5.30
2019-01-06T13:35:49.451Z,5.23
2019-01-06T13:38:36.940Z,5.34
2019-01-06T13:41:24.433Z,5.44
2019-01-06T13:44:11.920Z,5.54
2019-01-06T13:46:59.426Z,5.50
2019-01-06T13:49:46.909Z,5.48
2019-01-06T13:52:34.414Z,5.56
2019-01-06T13:55:21.902Z,5.50
2019-01-06T13:58:09.389Z,5.49
2019-01-06T14:03:45.849Z,5.52
2019-01-06T14:06:33.330Z,5.55
2019-01-06T14:11:59.767Z,5.49
2019-01-06T14:14:47.265Z,5.49
2019-01-06T14:20:38.518Z,5.54
2019-01-06T14:23:34.769Z,5.57
2019-01-06T14:26:22.190Z,5.53
2019-01-06T14:29:09.685Z,5.67
2019-01-06T14:31:57.180Z,5.70
2019-01-06T14:34:42.775Z,5.68
2019-01-06T14:37:30.263Z,5.62
2019-01-06T14:40:17.741Z,5.68
2019-01-06T14:43:05.230Z,5.69
2019-01-06T14:45:52.720Z,5.65
2019-01-06T14:48:40.205Z,5.74
2019-01-06T14:51:27.690Z,5.77
2019-01-06T14:54:15.171Z,5.77
2019-01-06T14:57:02.661Z,5.76
2019-01-06T15:02:29.095Z,5.80
2019-01-06T15:05:16.593Z,5.76
2019-01-06T15:08:04.088Z,5.79
2019-01-06T15:18:59.595Z,5.91
2019-01-06T15:21:47.047Z,5.87
2019-01-06T15:24:34.535Z,5.95
2019-01-06T15:27:22.020Z,5.98
2019-01-06T15:30:09.503Z,5.95
2019-01-06T15:35:45.944Z,5.94
2019-01-06T15:41:12.405Z,5.88
2019-01-06T15:44:00.181Z,5.92
2019-01-06T15:46:47.707Z,5.93
2019-01-06T15:49:35.188Z,5.97
2019-01-06T16:03:08.501Z,6.05
2019-01-06T16:05:56.001Z,6.07
2019-01-06T16:08:43.503Z,6.07
2019-01-06T16:11:30.981Z,6.12
2019-01-06T16:14:18.470Z,6.10
2019-01-06T16:17:05.958Z,6.11
2019-01-06T16:19:53.469Z,6.13
2019-01-06T16:25:29.930Z,6.05
2019-01-06T16:28:17.413Z,6.12
2019-01-06T16:31:04.940Z,6.14
2019-01-06T16:33:52.407Z,6.18
2019-01-06T16:39:18.851Z,6.26
2019-01-06T16:42:06.354Z,6.29
2019-01-06T16:47:32.812Z,6.18
2019-01-06T16:50:20.365Z,6.27
2019-01-06T16:53:07.871Z,6.28
2019-01-06T16:55:55.358Z,6.32
2019-01-06T16:58:42.840Z,6.15
2019-01-06T17:01:30.310Z,6.22
2019-01-06T17:09:45.714Z,6.19
2019-01-06T17:12:33.188Z,6.13
2019-01-06T17:15:20.677Z,6.21
2019-01-06T17:18:08.166Z,6.03
2019-01-06T17:23:34.613Z,6.15
2019-01-06T17:26:22.107Z,6.06
2019-01-06T17:29:09.611Z,6.17
2019-01-06T17:31:57.093Z,6.23
2019-01-06T17:34:44.588Z,6.26
2019-01-06T17:37:38.261Z,6.24
2019-01-06T17:40:21.312Z,6.30
2019-01-06T17:43:08.810Z,6.26
2019-01-06T17:48:45.266Z,6.15
2019-01-06T17:54:21.718Z,6.19
2019-01-06T17:57:09.190Z,6.08
2019-01-06T18:02:35.623Z,6.12
2019-01-06T18:08:31.247Z,6.03
2019-01-06T18:11:18.740Z,6.03
2019-01-06T18:14:06.239Z,6.02
2019-01-06T18:16:53.733Z,6.01
2019-01-06T18:19:41.243Z,6.06
2019-01-06T18:22:36.088Z,6.01
2019-01-06T18:25:37.287Z,6.11
2019-01-06T18:28:24.783Z,6.04
2019-01-06T18:31:12.282Z,6.05
2019-01-06T18:39:28.729Z,6.05
2019-01-06T18:44:55.171Z,6.04
2019-01-06T18:50:21.631Z,6.13
2019-01-06T18:53:09.115Z,6.05
2019-01-06T18:55:56.637Z,6.02
2019-01-06T18:58:44.133Z,6.12
2019-01-06T19:01:31.639Z,6.09
2019-01-06T19:04:19.143Z,6.10
2019-01-06T19:07:06.602Z,6.05
2019-01-06T19:09:54.131Z,6.09
2019-01-06T19:12:41.623Z,6.14
2019-01-06T19:15:29.122Z,6.18
2019-01-06T19:18:16.603Z,6.20
2019-01-06T19:21:04.112Z,6.16
2019-01-06T19:26:42.800Z,6.18
2019-01-06T19:29:30.274Z,6.08
2019-01-06T19:32:17.777Z,6.19
2019-01-06T19:35:05.283Z,6.23
2019-01-06T19:40:41.748Z,6.16
2019-01-06T19:46:08.202Z,6.24
2019-01-06T19:48:55.708Z,6.24
2019-01-06T19:51:43.196Z,6.19
2019-01-06T19:54:30.689Z,6.16
2019-01-06T19:57:18.223Z,6.12
2019-01-06T20:00:05.720Z,6.12
2019-01-06T20:08:21.120Z,6.16
2019-01-06T20:11:08.621Z,6.06
2019-01-06T20:13:56.101Z,6.17
2019-01-06T20:16:43.579Z,6.20
2019-01-06T20:22:10.023Z,6.19
2019-01-06T20:24:57.504Z,6.14
2019-01-06T20:27:44.988Z,6.14
2019-01-06T20:30:32.461Z,6.19
2019-01-06T20:41:36.824Z,6.08
2019-01-06T20:44:24.311Z,6.07
2019-01-06T20:47:11.808Z,6.02
2019-01-06T20:49:59.381Z,6.01
2019-01-06T20:55:25.829Z,6.10
2019-01-06T20:58:13.317Z,6.12
2019-01-06T21:01:00.818Z,6.11
2019-01-06T21:03:48.309Z,6.15
2019-01-06T21:06:35.802Z,6.17
2019-01-06T21:12:31.492Z,6.13
2019-01-06T21:15:19.008Z,6.07
2019-01-06T21:18:06.471Z,6.13
2019-01-06T21:20:53.989Z,6.07
2019-01-06T21:23:41.472Z,6.04
2019-01-06T21:26:28.948Z,6.03
2019-01-06T21:29:16.430Z,6.05
2019-01-06T21:32:03.908Z,6.01
2019-01-06T21:40:19.317Z,6.06
2019-01-06T21:43:06.814Z,6.02
2019-01-06T21:45:54.299Z,6.05
2019-01-06T21:48:41.813Z,6.03
2019-01-06T21:51:29.303Z,6.04
2019-01-06T21:54:16.784Z,6.01
2019-01-06T21:57:04.274Z,6.02
2019-01-06T21:59:51.818Z,6.02
2019-01-06T22:02:39.267Z,6.16
2019-01-06T22:05:26.767Z,6.07
2019-01-06T22:08:14.254Z,6.19
2019-01-06T22:11:01.737Z,6.14
2019-01-06T22:13:49.226Z,6.22
2019-01-06T22:19:15.727Z,6.18
2019-01-06T22:22:03.228Z,6.28
2019-01-06T22:24:50.737Z,6.19
2019-01-06T22:30:17.188Z,6.15
2019-01-06T22:33:04.665Z,6.19
2019-01-06T22:35:52.165Z,6.19
2019-01-06T22:38:39.643Z,6.14
2019-01-06T22:41:27.153Z,6.14
2019-01-06T22:44:14.652Z,6.22
2019-01-06T22:47:02.143Z,6.20
2019-01-06T22:49:49.626Z,6.19
2019-01-06T22:52:37.285Z,6.20
2019-01-06T22:55:24.765Z,6.22
2019-01-06T22:58:12.274Z,6.22
2019-01-06T23:00:59.927Z,6.13
2019-01-06T23:03:47.456Z,6.14
2019-01-06T23:06:34.954Z,6.19
2019-01-06T23:09:22.490Z,6.16
2019-01-06T23:12:09.958Z,6.18
2019-01-06T23:14:57.483Z,6.14
2019-01-06T23:17:44.958Z,6.20
2019-01-06T23:20:32.454Z,6.15
2019-01-06T23:23:19.922Z,6.18
2019-01-06T23:26:07.420Z,6.18
2019-01-06T23:28:54.894Z,6.11
2019-01-06T23:34:21.344Z,6.10
2019-01-06T23:37:08.824Z,6.14
2019-01-06T23:39:56.335Z,6.11
2019-01-06T23:42:43.818Z,6.13
2019-01-06T23:45:31.319Z,6.05
2019-01-06T23:50:57.752Z,6.14
2019-01-06T23:53:45.253Z,6.14
2019-01-06T23:56:32.742Z,6.17
2019-01-06T23:59:20.240Z,6.10
